sensor_id;sensor_type;location;lat;lon;timestamp;temperature;humidity
2913;DHT22;1466;48.778;9.166;2024-01-15T00:01:43;1.20;95.90
2913;DHT22;1466;48.778;9.166;2024-01-15T00:04:09;1.30;96.00
2913;DHT22;1466;48.778;9.166;2024-01-15T00:06:35;1.30;95.90
2913;DHT22;1466;48.778;9.166;2024-01-15T00:09:00;1.40;95.80
2913;DHT22;1466;48.778;9.166;2024-01-15T00:11:26;1.40;95.80
2913;DHT22;1466;48.778;9.166;2024-01-15T00:13:52;1.40;95.80
2913;DHT22;1466;48.778;9.166;2024-01-15T00:16:18;1.30;95.70
2913;DHT22;1466;48.778;9.166;2024-01-15T00:18:43;1.40;95.70
2913;DHT22;1466;48.778;9.166;2024-01-15T00:21:09;1.30;95.70
2913;DHT22;1466;48.778;9.166;2024-01-15T00:23:35;1.30;95.70
2913;DHT22;1466;48.778;9.166;2024-01-15T00:26:00;1.30;95.80
2913;DHT22;1466;48.778;9.166;2024-01-15T00:28:26;1.20;95.80
2913;DHT22;1466;48.778;9.166;2024-01-15T00:30:51;1.20;95.90
2913;DHT22;1466;48.778;9.166;2024-01-15T00:33:17;1.20;95.90
2913;DHT22;1466;48.778;9.166;2024-01-15T00:35:42;1.10;96.00
2913;DHT22;1466;48.778;9.166;2024-01-15T00:38:08;1.10;96.10
2913;DHT22;1466;48.778;9.166;2024-01-15T00:40:42;1.10;96.20
2913;DHT22;1466;48.778;9.166;2024-01-15T00:43:08;1.10;96.50
2913;DHT22;1466;48.778;9.166;2024-01-15T00:45:33;1.10;96.30
2913;DHT22;1466;48.778;9.166;2024-01-15T00:47:59;1.20;96.30
2913;DHT22;1466;48.778;9.166;2024-01-15T00:50:26;1.20;96.20
2913;DHT22;1466;48.778;9.166;2024-01-15T00:52:52;1.20;96.20
2913;DHT22;1466;48.778;9.166;2024-01-15T00:55:17;1.20;96.30
2913;DHT22;1466;48.778;9.166;2024-01-15T00:57:43;1.30;96.40
2913;DHT22;1466;48.778;9.166;2024-01-15T01:00:09;1.30;96.30
2913;DHT22;1466;48.778;9.166;2024-01-15T01:02:34;1.20;96.30
2913;DHT22;1466;48.778;9.166;2024-01-15T01:05:00;1.20;96.30
2913;DHT22;1466;48.778;9.166;2024-01-15T01:07:25;1.20;96.50
2913;DHT22;1466;48.778;9.166;2024-01-15T01:09:51;1.20;96.60
2913;DHT22;1466;48.778;9.166;2024-01-15T01:12:17;1.20;96.60
2913;DHT22;1466;48.778;9.166;2024-01-15T01:14:42;1.20;96.70
2913;DHT22;1466;48.778;9.166;2024-01-15T01:17:08;1.30;96.70
2913;DHT22;1466;48.778;9.166;2024-01-15T01:19:33;1.30;96.80
2913;DHT22;1466;48.778;9.166;2024-01-15T01:21:59;1.40;96.80
2913;DHT22;1466;48.778;9.166;2024-01-15T01:24:24;1.30;96.80
2913;DHT22;1466;48.778;9.166;2024-01-15T01:26:50;1.40;96.90
2913;DHT22;1466;48.778;9.166;2024-01-15T01:29:16;1.50;96.80
2913;DHT22;1466;48.778;9.166;2024-01-15T01:31:45;1.50;96.80
2913;DHT22;1466;48.778;9.166;2024-01-15T01:34:13;1.50;96.70
2913;DHT22;1466;48.778;9.166;2024-01-15T01:36:39;1.60;96.70
2913;DHT22;1466;48.778;9.166;2024-01-15T01:39:04;1.60;96.70
2913;DHT22;1466;48.778;9.166;2024-01-15T01:41:30;1.70;96.70
2913;DHT22;1466;48.778;9.166;2024-01-15T01:43:56;1.60;96.70
2913;DHT22;1466;48.778;9.166;2024-01-15T01:46:23;1.70;96.80
2913;DHT22;1466;48.778;9.166;2024-01-15T01:48:48;1.60;96.70
2913;DHT22;1466;48.778;9.166;2024-01-15T01:51:14;1.60;96.80
2913;DHT22;1466;48.778;9.166;2024-01-15T01:53:40;1.60;96.90
2913;DHT22;1466;48.778;9.166;2024-01-15T01:56:07;1.60;96.90
2913;DHT22;1466;48.778;9.166;2024-01-15T01:58:33;1.60;97.00
2913;DHT22;1466;48.778;9.166;2024-01-15T02:00:59;1.70;97.00
2913;DHT22;1466;48.778;9.166;2024-01-15T02:03:27;1.80;96.90
2913;DHT22;1466;48.778;9.166;2024-01-15T02:05:52;1.80;96.80
2913;DHT22;1466;48.778;9.166;2024-01-15T02:08:19;1.80;96.80
2913;DHT22;1466;48.778;9.166;2024-01-15T02:10:44;1.80;96.70
2913;DHT22;1466;48.778;9.166;2024-01-15T02:13:10;1.80;96.70
2913;DHT22;1466;48.778;9.166;2024-01-15T02:15:36;1.80;96.70
2913;DHT22;1466;48.778;9.166;2024-01-15T02:18:03;1.80;96.70
2913;DHT22;1466;48.778;9.166;2024-01-15T02:20:29;1.80;96.70
2913;DHT22;1466;48.778;9.166;2024-01-15T02:23:15;1.70;96.80
2913;DHT22;1466;48.778;9.166;2024-01-15T02:25:45;1.70;96.90
2913;DHT22;1466;48.778;9.166;2024-01-15T02:28:17;1.60;96.90
2913;DHT22;1466;48.778;9.166;2024-01-15T02:30:43;1.60;97.00
2913;DHT22;1466;48.778;9.166;2024-01-15T02:33:10;1.60;97.10
2913;DHT22;1466;48.778;9.166;2024-01-15T02:35:36;1.60;97.40
2913;DHT22;1466;48.778;9.166;2024-01-15T02:38:03;1.60;97.20
2913;DHT22;1466;48.778;9.166;2024-01-15T02:40:29;1.60;97.20
2913;DHT22;1466;48.778;9.166;2024-01-15T02:42:54;1.70;97.20
2913;DHT22;1466;48.778;9.166;2024-01-15T02:45:21;1.60;97.10
2913;DHT22;1466;48.778;9.166;2024-01-15T02:47:46;1.60;97.10
2913;DHT22;1466;48.778;9.166;2024-01-15T02:50:12;1.60;97.10
2913;DHT22;1466;48.778;9.166;2024-01-15T02:52:38;1.60;97.40
2913;DHT22;1466;48.778;9.166;2024-01-15T02:55:04;1.50;97.10
2913;DHT22;1466;48.778;9.166;2024-01-15T02:57:30;1.50;97.20
2913;DHT22;1466;48.778;9.166;2024-01-15T02:59:55;1.50;97.30
2913;DHT22;1466;48.778;9.166;2024-01-15T03:02:21;1.50;97.40
2913;DHT22;1466;48.778;9.166;2024-01-15T03:04:46;1.50;97.40
2913;DHT22;1466;48.778;9.166;2024-01-15T03:07:12;1.50;97.40
2913;DHT22;1466;48.778;9.166;2024-01-15T03:09:38;1.50;97.40
2913;DHT22;1466;48.778;9.166;2024-01-15T03:12:04;1.60;97.40
2913;DHT22;1466;48.778;9.166;2024-01-15T03:14:30;1.50;97.30
2913;DHT22;1466;48.778;9.166;2024-01-15T03:16:56;1.50;97.40
2913;DHT22;1466;48.778;9.166;2024-01-15T03:19:21;1.50;97.40
2913;DHT22;1466;48.778;9.166;2024-01-15T03:21:47;1.50;97.40
2913;DHT22;1466;48.778;9.166;2024-01-15T03:24:12;1.50;97.40
2913;DHT22;1466;48.778;9.166;2024-01-15T03:26:38;1.50;97.50
2913;DHT22;1466;48.778;9.166;2024-01-15T03:29:04;1.50;97.40
2913;DHT22;1466;48.778;9.166;2024-01-15T03:31:29;1.50;97.40
2913;DHT22;1466;48.778;9.166;2024-01-15T03:33:55;1.50;97.40
2913;DHT22;1466;48.778;9.166;2024-01-15T03:36:21;1.50;97.40
2913;DHT22;1466;48.778;9.166;2024-01-15T03:38:47;1.50;97.40
2913;DHT22;1466;48.778;9.166;2024-01-15T03:41:12;1.50;97.40
2913;DHT22;1466;48.778;9.166;2024-01-15T03:43:38;1.50;97.40
2913;DHT22;1466;48.778;9.166;2024-01-15T03:46:03;1.50;97.50
2913;DHT22;1466;48.778;9.166;2024-01-15T03:48:30;1.50;97.50
2913;DHT22;1466;48.778;9.166;2024-01-15T03:50:55;1.50;97.60
2913;DHT22;1466;48.778;9.166;2024-01-15T03:53:21;1.50;97.60
2913;DHT22;1466;48.778;9.166;2024-01-15T03:55:47;1.50;97.70
2913;DHT22;1466;48.778;9.166;2024-01-15T03:58:12;1.60;97.70
2913;DHT22;1466;48.778;9.166;2024-01-15T04:00:40;1.60;97.70
2913;DHT22;1466;48.778;9.166;2024-01-15T04:03:06;1.60;97.70
2913;DHT22;1466;48.778;9.166;2024-01-15T04:05:31;1.60;97.80
2913;DHT22;1466;48.778;9.166;2024-01-15T04:07:57;1.70;97.70
2913;DHT22;1466;48.778;9.166;2024-01-15T04:10:22;1.80;97.60
2913;DHT22;1466;48.778;9.166;2024-01-15T04:12:48;1.80;97.90
2913;DHT22;1466;48.778;9.166;2024-01-15T04:15:13;1.90;97.60
2913;DHT22;1466;48.778;9.166;2024-01-15T04:17:39;1.90;97.50
2913;DHT22;1466;48.778;9.166;2024-01-15T04:20:05;1.90;97.40
2913;DHT22;1466;48.778;9.166;2024-01-15T04:22:32;2.00;97.40
2913;DHT22;1466;48.778;9.166;2024-01-15T04:24:58;2.00;97.40
2913;DHT22;1466;48.778;9.166;2024-01-15T04:27:24;2.00;97.30
2913;DHT22;1466;48.778;9.166;2024-01-15T04:29:49;2.00;97.20
2913;DHT22;1466;48.778;9.166;2024-01-15T04:32:15;2.10;97.20
2913;DHT22;1466;48.778;9.166;2024-01-15T04:34:41;2.00;97.20
2913;DHT22;1466;48.778;9.166;2024-01-15T04:37:06;2.10;97.20
2913;DHT22;1466;48.778;9.166;2024-01-15T04:39:32;2.00;97.20
2913;DHT22;1466;48.778;9.166;2024-01-15T04:41:57;2.00;97.20
2913;DHT22;1466;48.778;9.166;2024-01-15T04:44:23;2.00;97.30
2913;DHT22;1466;48.778;9.166;2024-01-15T04:46:48;2.00;97.30
2913;DHT22;1466;48.778;9.166;2024-01-15T04:49:14;2.00;97.40
2913;DHT22;1466;48.778;9.166;2024-01-15T04:51:40;2.00;97.30
2913;DHT22;1466;48.778;9.166;2024-01-15T04:54:05;2.00;97.40
2913;DHT22;1466;48.778;9.166;2024-01-15T04:56:31;2.00;97.40
2913;DHT22;1466;48.778;9.166;2024-01-15T04:58:56;2.00;97.40
2913;DHT22;1466;48.778;9.166;2024-01-15T05:01:22;2.00;97.40
2913;DHT22;1466;48.778;9.166;2024-01-15T05:03:48;2.10;97.50
2913;DHT22;1466;48.778;9.166;2024-01-15T05:06:14;2.10;97.50
2913;DHT22;1466;48.778;9.166;2024-01-15T05:08:40;2.10;97.60
2913;DHT22;1466;48.778;9.166;2024-01-15T05:11:05;2.10;97.60
2913;DHT22;1466;48.778;9.166;2024-01-15T05:13:31;2.10;97.60
2913;DHT22;1466;48.778;9.166;2024-01-15T05:15:57;2.10;97.70
2913;DHT22;1466;48.778;9.166;2024-01-15T05:18:22;2.10;97.70
2913;DHT22;1466;48.778;9.166;2024-01-15T05:20:48;2.10;97.70
2913;DHT22;1466;48.778;9.166;2024-01-15T05:23:14;2.10;97.80
2913;DHT22;1466;48.778;9.166;2024-01-15T05:25:39;2.10;97.80
2913;DHT22;1466;48.778;9.166;2024-01-15T05:28:05;2.20;97.90
2913;DHT22;1466;48.778;9.166;2024-01-15T05:30:31;2.20;97.80
2913;DHT22;1466;48.778;9.166;2024-01-15T05:32:56;2.20;97.70
2913;DHT22;1466;48.778;9.166;2024-01-15T05:35:23;2.20;97.70
2913;DHT22;1466;48.778;9.166;2024-01-15T05:37:48;2.20;97.80
2913;DHT22;1466;48.778;9.166;2024-01-15T05:40:14;2.20;97.70
2913;DHT22;1466;48.778;9.166;2024-01-15T05:42:40;2.10;97.70
2913;DHT22;1466;48.778;9.166;2024-01-15T05:45:06;2.20;97.70
2913;DHT22;1466;48.778;9.166;2024-01-15T05:47:32;2.20;97.70
2913;DHT22;1466;48.778;9.166;2024-01-15T05:49:58;2.30;97.70
2913;DHT22;1466;48.778;9.166;2024-01-15T05:52:24;2.30;97.70
2913;DHT22;1466;48.778;9.166;2024-01-15T05:54:50;2.40;97.60
2913;DHT22;1466;48.778;9.166;2024-01-15T05:57:15;2.40;97.60
2913;DHT22;1466;48.778;9.166;2024-01-15T05:59:42;2.40;97.70
2913;DHT22;1466;48.778;9.166;2024-01-15T06:02:08;2.40;97.60
2913;DHT22;1466;48.778;9.166;2024-01-15T06:04:33;2.30;97.50
2913;DHT22;1466;48.778;9.166;2024-01-15T06:06:59;2.40;97.90
2913;DHT22;1466;48.778;9.166;2024-01-15T06:09:25;2.30;97.50
2913;DHT22;1466;48.778;9.166;2024-01-15T06:11:50;2.30;97.50
2913;DHT22;1466;48.778;9.166;2024-01-15T06:14:16;2.30;97.50
2913;DHT22;1466;48.778;9.166;2024-01-15T06:16:44;2.30;97.60
2913;DHT22;1466;48.778;9.166;2024-01-15T06:19:09;2.40;97.50
2913;DHT22;1466;48.778;9.166;2024-01-15T06:21:41;2.30;97.30
2913;DHT22;1466;48.778;9.166;2024-01-15T06:24:06;2.40;97.30
2913;DHT22;1466;48.778;9.166;2024-01-15T06:26:32;2.40;97.30
2913;DHT22;1466;48.778;9.166;2024-01-15T06:28:58;2.40;97.30
2913;DHT22;1466;48.778;9.166;2024-01-15T06:31:24;2.40;97.20
2913;DHT22;1466;48.778;9.166;2024-01-15T06:33:50;2.40;97.20
2913;DHT22;1466;48.778;9.166;2024-01-15T06:36:15;2.40;97.30
2913;DHT22;1466;48.778;9.166;2024-01-15T06:38:43;2.40;97.40
2913;DHT22;1466;48.778;9.166;2024-01-15T06:41:09;2.40;97.30
2913;DHT22;1466;48.778;9.166;2024-01-15T06:43:35;2.40;97.30
2913;DHT22;1466;48.778;9.166;2024-01-15T06:46:01;2.40;97.20
2913;DHT22;1466;48.778;9.166;2024-01-15T06:48:26;2.40;97.20
2913;DHT22;1466;48.778;9.166;2024-01-15T06:50:52;2.30;97.30
2913;DHT22;1466;48.778;9.166;2024-01-15T06:53:17;2.40;97.40
2913;DHT22;1466;48.778;9.166;2024-01-15T06:55:43;2.40;97.30
2913;DHT22;1466;48.778;9.166;2024-01-15T06:58:09;2.40;97.40
2913;DHT22;1466;48.778;9.166;2024-01-15T07:00:34;2.40;97.40
2913;DHT22;1466;48.778;9.166;2024-01-15T07:03:00;2.40;97.30
2913;DHT22;1466;48.778;9.166;2024-01-15T07:05:25;2.40;97.30
2913;DHT22;1466;48.778;9.166;2024-01-15T07:07:51;2.40;97.20
2913;DHT22;1466;48.778;9.166;2024-01-15T07:10:17;2.40;97.10
2913;DHT22;1466;48.778;9.166;2024-01-15T07:12:43;2.40;97.20
2913;DHT22;1466;48.778;9.166;2024-01-15T07:15:09;2.50;97.00
2913;DHT22;1466;48.778;9.166;2024-01-15T07:17:35;2.50;96.90
2913;DHT22;1466;48.778;9.166;2024-01-15T07:20:01;2.50;96.90
2913;DHT22;1466;48.778;9.166;2024-01-15T07:22:26;2.50;96.80
2913;DHT22;1466;48.778;9.166;2024-01-15T07:24:52;2.60;96.70
2913;DHT22;1466;48.778;9.166;2024-01-15T07:27:18;2.50;96.50
2913;DHT22;1466;48.778;9.166;2024-01-15T07:29:43;2.50;96.30
2913;DHT22;1466;48.778;9.166;2024-01-15T07:32:09;2.50;96.30
2913;DHT22;1466;48.778;9.166;2024-01-15T07:34:35;2.50;96.40
2913;DHT22;1466;48.778;9.166;2024-01-15T07:37:01;2.50;96.30
2913;DHT22;1466;48.778;9.166;2024-01-15T07:39:26;2.60;96.40
2913;DHT22;1466;48.778;9.166;2024-01-15T07:41:54;2.60;96.20
2913;DHT22;1466;48.778;9.166;2024-01-15T07:44:20;2.60;96.20
2913;DHT22;1466;48.778;9.166;2024-01-15T07:46:48;2.60;96.10
2913;DHT22;1466;48.778;9.166;2024-01-15T07:49:14;2.60;96.10
2913;DHT22;1466;48.778;9.166;2024-01-15T07:51:40;2.60;95.90
2913;DHT22;1466;48.778;9.166;2024-01-15T07:54:06;2.70;96.00
2913;DHT22;1466;48.778;9.166;2024-01-15T07:56:32;2.60;95.80
2913;DHT22;1466;48.778;9.166;2024-01-15T07:58:58;2.60;95.80
2913;DHT22;1466;48.778;9.166;2024-01-15T08:01:24;2.60;95.70
2913;DHT22;1466;48.778;9.166;2024-01-15T08:03:50;2.70;95.60
2913;DHT22;1466;48.778;9.166;2024-01-15T08:06:15;2.70;95.60
2913;DHT22;1466;48.778;9.166;2024-01-15T08:08:41;2.70;95.70
2913;DHT22;1466;48.778;9.166;2024-01-15T08:11:07;2.70;95.20
2913;DHT22;1466;48.778;9.166;2024-01-15T08:13:32;2.70;95.20
2913;DHT22;1466;48.778;9.166;2024-01-15T08:15:58;2.70;95.10
2913;DHT22;1466;48.778;9.166;2024-01-15T08:18:24;2.70;94.90
2913;DHT22;1466;48.778;9.166;2024-01-15T08:20:50;2.70;95.00
2913;DHT22;1466;48.778;9.166;2024-01-15T08:23:17;2.70;95.00
2913;DHT22;1466;48.778;9.166;2024-01-15T08:25:43;2.70;95.00
2913;DHT22;1466;48.778;9.166;2024-01-15T08:28:08;2.70;94.90
2913;DHT22;1466;48.778;9.166;2024-01-15T08:30:34;2.80;95.00
2913;DHT22;1466;48.778;9.166;2024-01-15T08:33:00;2.80;94.90
2913;DHT22;1466;48.778;9.166;2024-01-15T08:35:25;2.80;94.90
2913;DHT22;1466;48.778;9.166;2024-01-15T08:37:54;2.80;94.80
2913;DHT22;1466;48.778;9.166;2024-01-15T08:40:20;2.80;94.80
2913;DHT22;1466;48.778;9.166;2024-01-15T08:42:46;2.90;94.70
2913;DHT22;1466;48.778;9.166;2024-01-15T08:45:12;2.90;94.70
2913;DHT22;1466;48.778;9.166;2024-01-15T08:47:38;3.00;94.70
2913;DHT22;1466;48.778;9.166;2024-01-15T08:50:04;3.10;94.70
2913;DHT22;1466;48.778;9.166;2024-01-15T08:52:30;3.10;94.30
2913;DHT22;1466;48.778;9.166;2024-01-15T08:54:57;3.20;94.30
2913;DHT22;1466;48.778;9.166;2024-01-15T08:57:22;3.20;93.90
2913;DHT22;1466;48.778;9.166;2024-01-15T08:59:48;3.20;93.80
2913;DHT22;1466;48.778;9.166;2024-01-15T09:02:14;3.20;93.70
2913;DHT22;1466;48.778;9.166;2024-01-15T09:04:40;3.30;93.40
2913;DHT22;1466;48.778;9.166;2024-01-15T09:07:07;3.30;93.20
2913;DHT22;1466;48.778;9.166;2024-01-15T09:09:32;3.40;93.20
2913;DHT22;1466;48.778;9.166;2024-01-15T09:11:59;3.40;93.00
2913;DHT22;1466;48.778;9.166;2024-01-15T09:14:25;3.40;92.80
2913;DHT22;1466;48.778;9.166;2024-01-15T09:16:52;3.40;92.70
2913;DHT22;1466;48.778;9.166;2024-01-15T09:19:18;3.40;92.80
2913;DHT22;1466;48.778;9.166;2024-01-15T09:21:44;3.40;92.90
2913;DHT22;1466;48.778;9.166;2024-01-15T09:24:09;3.50;92.80
2913;DHT22;1466;48.778;9.166;2024-01-15T09:26:35;3.50;92.80
2913;DHT22;1466;48.778;9.166;2024-01-15T09:29:00;3.50;92.60
2913;DHT22;1466;48.778;9.166;2024-01-15T09:31:26;3.50;92.60
2913;DHT22;1466;48.778;9.166;2024-01-15T09:33:52;3.60;92.40
2913;DHT22;1466;48.778;9.166;2024-01-15T09:36:21;3.50;92.40
2913;DHT22;1466;48.778;9.166;2024-01-15T09:38:48;3.60;92.40
2913;DHT22;1466;48.778;9.166;2024-01-15T09:41:13;3.70;92.30
2913;DHT22;1466;48.778;9.166;2024-01-15T09:43:39;3.70;92.30
2913;DHT22;1466;48.778;9.166;2024-01-15T09:46:06;3.70;92.40
2913;DHT22;1466;48.778;9.166;2024-01-15T09:48:31;3.80;92.30
2913;DHT22;1466;48.778;9.166;2024-01-15T09:51:03;3.90;92.20
2913;DHT22;1466;48.778;9.166;2024-01-15T09:53:29;3.90;92.10
2913;DHT22;1466;48.778;9.166;2024-01-15T09:55:56;3.90;92.00
2913;DHT22;1466;48.778;9.166;2024-01-15T09:58:21;3.90;92.00
2913;DHT22;1466;48.778;9.166;2024-01-15T10:00:48;3.90;92.00
2913;DHT22;1466;48.778;9.166;2024-01-15T10:03:15;3.80;92.00
2913;DHT22;1466;48.778;9.166;2024-01-15T10:05:41;3.90;92.10
2913;DHT22;1466;48.778;9.166;2024-01-15T10:08:07;3.90;92.10
2913;DHT22;1466;48.778;9.166;2024-01-15T10:10:36;3.90;92.10
2913;DHT22;1466;48.778;9.166;2024-01-15T10:13:02;3.90;92.00
2913;DHT22;1466;48.778;9.166;2024-01-15T10:15:29;3.90;92.10
2913;DHT22;1466;48.778;9.166;2024-01-15T10:17:55;3.90;92.00
2913;DHT22;1466;48.778;9.166;2024-01-15T10:20:21;3.90;91.90
2913;DHT22;1466;48.778;9.166;2024-01-15T10:22:50;3.90;91.90
2913;DHT22;1466;48.778;9.166;2024-01-15T10:25:16;3.90;91.90
2913;DHT22;1466;48.778;9.166;2024-01-15T10:27:42;4.00;92.00
2913;DHT22;1466;48.778;9.166;2024-01-15T10:30:08;4.00;91.90
2913;DHT22;1466;48.778;9.166;2024-01-15T10:32:34;4.00;92.00
2913;DHT22;1466;48.778;9.166;2024-01-15T10:35:00;4.10;91.80
2913;DHT22;1466;48.778;9.166;2024-01-15T10:37:25;4.10;91.80
2913;DHT22;1466;48.778;9.166;2024-01-15T10:39:52;4.10;91.80
2913;DHT22;1466;48.778;9.166;2024-01-15T10:42:18;4.00;91.60
2913;DHT22;1466;48.778;9.166;2024-01-15T10:44:44;4.00;91.80
2913;DHT22;1466;48.778;9.166;2024-01-15T10:47:12;4.00;91.60
2913;DHT22;1466;48.778;9.166;2024-01-15T10:49:39;3.90;91.70
2913;DHT22;1466;48.778;9.166;2024-01-15T10:52:05;3.90;92.00
2913;DHT22;1466;48.778;9.166;2024-01-15T10:54:31;3.90;92.10
2913;DHT22;1466;48.778;9.166;2024-01-15T10:56:57;4.00;92.10
2913;DHT22;1466;48.778;9.166;2024-01-15T10:59:23;4.10;92.10
2913;DHT22;1466;48.778;9.166;2024-01-15T11:01:49;4.10;92.20
2913;DHT22;1466;48.778;9.166;2024-01-15T11:04:19;4.20;91.90
2913;DHT22;1466;48.778;9.166;2024-01-15T11:06:47;4.20;91.90
2913;DHT22;1466;48.778;9.166;2024-01-15T11:09:13;4.20;92.00
2913;DHT22;1466;48.778;9.166;2024-01-15T11:11:43;4.20;92.00
2913;DHT22;1466;48.778;9.166;2024-01-15T11:14:09;4.20;92.30
2913;DHT22;1466;48.778;9.166;2024-01-15T11:16:54;4.10;92.60
2913;DHT22;1466;48.778;9.166;2024-01-15T11:22:48;4.00;94.20
2913;DHT22;1466;48.778;9.166;2024-01-15T11:25:15;3.90;94.80
2913;DHT22;1466;48.778;9.166;2024-01-15T11:27:44;3.90;95.70
2913;DHT22;1466;48.778;9.166;2024-01-15T11:30:12;3.90;96.20
2913;DHT22;1466;48.778;9.166;2024-01-15T11:32:39;3.90;96.30
2913;DHT22;1466;48.778;9.166;2024-01-15T11:35:07;4.00;96.20
2913;DHT22;1466;48.778;9.166;2024-01-15T11:43:02;4.00;96.10
2913;DHT22;1466;48.778;9.166;2024-01-15T11:45:30;4.00;96.30
2913;DHT22;1466;48.778;9.166;2024-01-15T11:48:16;4.00;96.80
2913;DHT22;1466;48.778;9.166;2024-01-15T11:50:46;4.00;96.80
2913;DHT22;1466;48.778;9.166;2024-01-15T11:53:17;3.80;97.00
2913;DHT22;1466;48.778;9.166;2024-01-15T11:55:45;3.80;97.30
2913;DHT22;1466;48.778;9.166;2024-01-15T11:58:11;3.70;97.70
2913;DHT22;1466;48.778;9.166;2024-01-15T12:00:45;3.60;97.90
2913;DHT22;1466;48.778;9.166;2024-01-15T12:03:11;3.60;98.10
2913;DHT22;1466;48.778;9.166;2024-01-15T12:05:40;3.60;98.20
2913;DHT22;1466;48.778;9.166;2024-01-15T12:08:07;3.70;98.40
2913;DHT22;1466;48.778;9.166;2024-01-15T12:10:37;3.70;98.10
2913;DHT22;1466;48.778;9.166;2024-01-15T12:13:11;3.70;97.90
2913;DHT22;1466;48.778;9.166;2024-01-15T12:15:38;3.70;97.90
2913;DHT22;1466;48.778;9.166;2024-01-15T12:18:07;3.60;97.80
2913;DHT22;1466;48.778;9.166;2024-01-15T12:20:33;3.60;98.40
2913;DHT22;1466;48.778;9.166;2024-01-15T12:23:00;3.50;99.00
2913;DHT22;1466;48.778;9.166;2024-01-15T12:25:26;3.40;99.30
2913;DHT22;1466;48.778;9.166;2024-01-15T12:27:53;3.40;99.80
2913;DHT22;1466;48.778;9.166;2024-01-15T12:30:19;3.30;99.90
2913;DHT22;1466;48.778;9.166;2024-01-15T12:32:45;3.20;99.90
2913;DHT22;1466;48.778;9.166;2024-01-15T12:35:12;3.30;99.90
2913;DHT22;1466;48.778;9.166;2024-01-15T12:37:42;3.20;99.90
2913;DHT22;1466;48.778;9.166;2024-01-15T12:40:09;3.20;99.90
2913;DHT22;1466;48.778;9.166;2024-01-15T12:42:36;3.20;99.90
2913;DHT22;1466;48.778;9.166;2024-01-15T12:45:02;3.10;99.90
2913;DHT22;1466;48.778;9.166;2024-01-15T12:47:30;3.10;99.90
2913;DHT22;1466;48.778;9.166;2024-01-15T12:49:58;3.00;99.90
2913;DHT22;1466;48.778;9.166;2024-01-15T12:52:29;3.00;99.90
2913;DHT22;1466;48.778;9.166;2024-01-15T12:54:55;3.00;99.90
2913;DHT22;1466;48.778;9.166;2024-01-15T12:57:21;3.00;99.90
2913;DHT22;1466;48.778;9.166;2024-01-15T12:59:46;3.00;99.90
2913;DHT22;1466;48.778;9.166;2024-01-15T13:02:13;3.00;99.90
2913;DHT22;1466;48.778;9.166;2024-01-15T13:04:39;3.00;99.90
2913;DHT22;1466;48.778;9.166;2024-01-15T13:07:06;3.10;99.90
2913;DHT22;1466;48.778;9.166;2024-01-15T13:09:32;3.10;99.90
2913;DHT22;1466;48.778;9.166;2024-01-15T13:11:58;3.10;99.90
2913;DHT22;1466;48.778;9.166;2024-01-15T13:14:24;3.10;99.90
2913;DHT22;1466;48.778;9.166;2024-01-15T13:16:50;3.10;99.90
2913;DHT22;1466;48.778;9.166;2024-01-15T13:19:15;3.00;99.90
2913;DHT22;1466;48.778;9.166;2024-01-15T13:21:41;3.00;99.90
2913;DHT22;1466;48.778;9.166;2024-01-15T13:24:07;3.00;99.90
2913;DHT22;1466;48.778;9.166;2024-01-15T13:26:33;3.00;99.90
2913;DHT22;1466;48.778;9.166;2024-01-15T13:29:08;3.00;99.90
2913;DHT22;1466;48.778;9.166;2024-01-15T13:31:33;3.10;99.90
2913;DHT22;1466;48.778;9.166;2024-01-15T13:33:59;3.10;99.90
2913;DHT22;1466;48.778;9.166;2024-01-15T13:36:26;3.20;99.90
2913;DHT22;1466;48.778;9.166;2024-01-15T13:38:52;3.10;99.90
2913;DHT22;1466;48.778;9.166;2024-01-15T13:41:19;3.20;99.90
2913;DHT22;1466;48.778;9.166;2024-01-15T13:43:50;3.20;99.90
2913;DHT22;1466;48.778;9.166;2024-01-15T13:46:16;3.20;99.90
2913;DHT22;1466;48.778;9.166;2024-01-15T13:48:43;3.20;99.90
2913;DHT22;1466;48.778;9.166;2024-01-15T13:51:08;3.30;99.90
2913;DHT22;1466;48.778;9.166;2024-01-15T13:53:34;3.30;99.90
2913;DHT22;1466;48.778;9.166;2024-01-15T13:56:00;3.30;99.90
2913;DHT22;1466;48.778;9.166;2024-01-15T13:58:26;3.30;99.90
2913;DHT22;1466;48.778;9.166;2024-01-15T14:00:51;3.30;99.90
2913;DHT22;1466;48.778;9.166;2024-01-15T14:03:17;3.40;99.90
2913;DHT22;1466;48.778;9.166;2024-01-15T14:05:44;3.40;99.90
2913;DHT22;1466;48.778;9.166;2024-01-15T14:08:10;3.40;99.90
2913;DHT22;1466;48.778;9.166;2024-01-15T14:10:36;3.40;99.90
2913;DHT22;1466;48.778;9.166;2024-01-15T14:13:02;3.50;99.90
2913;DHT22;1466;48.778;9.166;2024-01-15T14:15:28;3.40;99.90
2913;DHT22;1466;48.778;9.166;2024-01-15T14:17:54;3.40;99.90
2913;DHT22;1466;48.778;9.166;2024-01-15T14:20:20;3.40;99.90
2913;DHT22;1466;48.778;9.166;2024-01-15T14:22:45;3.40;99.90
2913;DHT22;1466;48.778;9.166;2024-01-15T14:25:11;3.40;99.90
2913;DHT22;1466;48.778;9.166;2024-01-15T14:27:36;3.50;99.90
2913;DHT22;1466;48.778;9.166;2024-01-15T14:30:03;3.40;99.90
2913;DHT22;1466;48.778;9.166;2024-01-15T14:32:28;3.40;99.90
2913;DHT22;1466;48.778;9.166;2024-01-15T14:34:54;3.30;99.90
2913;DHT22;1466;48.778;9.166;2024-01-15T14:37:22;3.30;99.90
2913;DHT22;1466;48.778;9.166;2024-01-15T14:39:47;3.20;99.90
2913;DHT22;1466;48.778;9.166;2024-01-15T14:42:13;3.10;99.90
2913;DHT22;1466;48.778;9.166;2024-01-15T14:44:38;3.10;99.90
2913;DHT22;1466;48.778;9.166;2024-01-15T14:47:06;3.00;99.90
2913;DHT22;1466;48.778;9.166;2024-01-15T14:49:32;3.00;99.90
2913;DHT22;1466;48.778;9.166;2024-01-15T14:51:57;2.90;99.90
2913;DHT22;1466;48.778;9.166;2024-01-15T14:54:23;2.80;99.90
2913;DHT22;1466;48.778;9.166;2024-01-15T14:56:48;2.70;99.90
2913;DHT22;1466;48.778;9.166;2024-01-15T14:59:14;2.70;99.90
2913;DHT22;1466;48.778;9.166;2024-01-15T15:01:40;2.70;99.90
2913;DHT22;1466;48.778;9.166;2024-01-15T15:04:07;2.70;99.90
2913;DHT22;1466;48.778;9.166;2024-01-15T15:06:33;2.70;99.90
2913;DHT22;1466;48.778;9.166;2024-01-15T15:08:59;2.70;99.90
2913;DHT22;1466;48.778;9.166;2024-01-15T15:11:27;2.70;99.90
2913;DHT22;1466;48.778;9.166;2024-01-15T15:13:52;2.70;99.90
2913;DHT22;1466;48.778;9.166;2024-01-15T15:16:18;2.70;99.90
2913;DHT22;1466;48.778;9.166;2024-01-15T15:18:43;2.70;99.90
2913;DHT22;1466;48.778;9.166;2024-01-15T15:21:11;2.70;99.90
2913;DHT22;1466;48.778;9.166;2024-01-15T15:23:37;2.70;99.90
2913;DHT22;1466;48.778;9.166;2024-01-15T15:26:04;2.80;99.90
2913;DHT22;1466;48.778;9.166;2024-01-15T15:28:30;2.80;99.90
2913;DHT22;1466;48.778;9.166;2024-01-15T15:30:56;2.80;99.90
2913;DHT22;1466;48.778;9.166;2024-01-15T15:33:22;2.80;99.90
2913;DHT22;1466;48.778;9.166;2024-01-15T15:35:48;2.70;99.90
2913;DHT22;1466;48.778;9.166;2024-01-15T15:38:17;2.70;99.90
2913;DHT22;1466;48.778;9.166;2024-01-15T15:40:42;2.60;99.90
2913;DHT22;1466;48.778;9.166;2024-01-15T15:43:08;2.70;99.90
2913;DHT22;1466;48.778;9.166;2024-01-15T15:45:34;2.80;99.90
2913;DHT22;1466;48.778;9.166;2024-01-15T15:47:59;2.80;99.90
2913;DHT22;1466;48.778;9.166;2024-01-15T15:50:25;2.80;99.90
2913;DHT22;1466;48.778;9.166;2024-01-15T15:52:51;2.80;99.90
2913;DHT22;1466;48.778;9.166;2024-01-15T15:55:17;2.80;99.90
2913;DHT22;1466;48.778;9.166;2024-01-15T15:57:42;2.90;99.90
2913;DHT22;1466;48.778;9.166;2024-01-15T16:00:09;3.00;99.90
2913;DHT22;1466;48.778;9.166;2024-01-15T16:02:37;3.00;99.90
2913;DHT22;1466;48.778;9.166;2024-01-15T16:05:03;3.00;99.90
2913;DHT22;1466;48.778;9.166;2024-01-15T16:07:35;3.00;99.90
2913;DHT22;1466;48.778;9.166;2024-01-15T16:10:00;2.90;99.90
2913;DHT22;1466;48.778;9.166;2024-01-15T16:12:26;2.80;99.90
2913;DHT22;1466;48.778;9.166;2024-01-15T16:14:53;2.80;99.90
2913;DHT22;1466;48.778;9.166;2024-01-15T16:17:22;2.80;99.90
2913;DHT22;1466;48.778;9.166;2024-01-15T16:19:48;2.70;99.90